createdAt,value
2019-04-14T00:02:46.964Z,3.07
2019-04-14T00:05:16.904Z,3.00
2019-04-14T00:08:32.705Z,2.90
2019-04-14T00:11:02.287Z,2.83
2019-04-14T00:13:32.726Z,3.23
2019-04-14T00:16:03.158Z,2.90
2019-04-14T00:18:33.723Z,3.00
2019-04-14T00:21:04.394Z,3.47
2019-04-14T00:23:34.777Z,3.13
2019-04-14T00:26:25.464Z,2.90
2019-04-14T00:28:55.610Z,2.80
2019-04-14T00:31:26.184Z,2.50
2019-04-14T00:33:58.583Z,2.97
2019-04-14T00:36:48.228Z,3.10
2019-04-14T00:39:20.704Z,3.10
2019-04-14T00:42:15.050Z,3.30
2019-04-14T00:44:51.740Z,3.80
2019-04-14T00:47:28.914Z,3.40
2019-04-14T00:49:59.400Z,3.40
2019-04-14T00:52:29.813Z,3.30
2019-04-14T00:54:59.424Z,3.20
2019-04-14T00:57:29.103Z,3.00
2019-04-14T00:59:59.534Z,3.40
2019-04-14T01:02:29.694Z,2.93
2019-04-14T01:05:00.152Z,3.30
2019-04-14T01:07:30.524Z,3.20
2019-04-14T01:10:00.219Z,3.40
2019-04-14T01:12:30.032Z,2.87
2019-04-14T01:15:00.622Z,3.30
2019-04-14T01:17:30.897Z,3.37
2019-04-14T01:20:01.436Z,3.27
2019-04-14T01:22:31.469Z,2.83
2019-04-14T01:25:02.287Z,3.83
2019-04-14T01:27:32.069Z,2.87
2019-04-14T01:30:02.674Z,2.70
2019-04-14T01:32:32.654Z,3.00
2019-04-14T01:35:03.176Z,3.17
2019-04-14T01:37:33.310Z,3.10
2019-04-14T01:40:03.313Z,3.10
2019-04-14T01:42:33.439Z,2.73
2019-04-14T01:45:03.618Z,3.00
2019-04-14T01:47:33.449Z,3.20
2019-04-14T01:50:03.797Z,2.73
2019-04-14T01:52:42.215Z,2.70
2019-04-14T01:55:39.925Z,3.00
2019-04-14T01:58:12.292Z,2.70
2019-04-14T02:00:55.387Z,2.63
2019-04-14T02:03:25.944Z,2.77
2019-04-14T02:05:56.070Z,3.03
2019-04-14T02:08:26.268Z,2.93
2019-04-14T02:10:56.565Z,2.60
2019-04-14T02:13:26.802Z,3.10
2019-04-14T02:15:57.339Z,2.70
2019-04-14T02:18:27.265Z,2.70
2019-04-14T02:20:57.887Z,2.30
2019-04-14T02:23:27.980Z,2.67
2019-04-14T02:25:58.001Z,2.70
2019-04-14T02:28:28.780Z,2.70
2019-04-14T02:31:11.990Z,2.77
2019-04-14T02:33:50.555Z,2.70
2019-04-14T02:39:15.929Z,2.47
2019-04-14T02:44:04.913Z,2.73
2019-04-14T02:46:41.952Z,2.33
2019-04-14T02:49:22.700Z,2.70
2019-04-14T02:51:50.246Z,2.33
2019-04-14T02:54:04.718Z,2.20
2019-04-14T02:56:35.842Z,2.73
2019-04-14T02:59:07.783Z,2.40
2019-04-14T03:02:09.639Z,2.60
2019-04-14T03:04:12.962Z,2.40
2019-04-14T03:06:41.631Z,2.53
2019-04-14T03:11:47.110Z,2.60
2019-04-14T03:14:15.194Z,2.90
2019-04-14T03:17:21.912Z,2.67
2019-04-14T03:20:15.281Z,2.57
2019-04-14T03:25:30.122Z,2.33
2019-04-14T03:28:38.519Z,2.40
2019-04-14T03:31:37.541Z,3.97
2019-04-14T03:38:53.387Z,3.70
2019-04-14T03:44:07.355Z,3.47
2019-04-14T03:51:26.235Z,2.20
2019-04-14T03:54:03.632Z,2.50
2019-04-14T03:56:37.547Z,2.20
2019-04-14T03:59:08.357Z,2.20
2019-04-14T04:01:39.102Z,2.70
2019-04-14T04:04:09.658Z,2.70
2019-04-14T04:06:39.924Z,2.50
2019-04-14T04:09:10.454Z,2.27
2019-04-14T04:11:41.113Z,2.30
2019-04-14T04:14:11.763Z,2.10
2019-04-14T04:16:59.507Z,2.47
2019-04-14T04:19:47.081Z,2.50
2019-04-14T04:22:33.093Z,1.93
2019-04-14T04:25:24.768Z,2.20
2019-04-14T04:28:23.211Z,1.90
2019-04-14T04:30:58.093Z,2.20
2019-04-14T04:33:50.095Z,2.23
2019-04-14T04:36:27.044Z,2.43
2019-04-14T04:39:15.472Z,1.60
2019-04-14T04:41:45.072Z,1.77
2019-04-14T04:44:15.799Z,1.70
2019-04-14T04:46:45.971Z,1.70
2019-04-14T04:49:21.066Z,1.90
2019-04-14T04:51:46.732Z,2.00
2019-04-14T04:54:16.829Z,1.77
2019-04-14T04:56:47.238Z,1.90
2019-04-14T04:59:17.095Z,1.67
2019-04-14T05:01:47.356Z,1.37
2019-04-14T05:04:17.639Z,1.60
2019-04-14T05:07:05.573Z,1.50
2019-04-14T05:09:57.743Z,1.20
2019-04-14T05:12:50.178Z,1.40
2019-04-14T05:15:48.912Z,1.20
2019-04-14T05:18:23.028Z,1.00
2019-04-14T05:20:53.216Z,1.40
2019-04-14T05:23:23.467Z,1.10
2019-04-14T05:25:53.884Z,1.40
2019-04-14T05:28:24.503Z,1.37
2019-04-14T05:30:54.691Z,1.00
2019-04-14T05:33:25.046Z,1.27
2019-04-14T05:35:55.296Z,1.30
2019-04-14T05:38:26.181Z,1.40
2019-04-14T05:40:56.285Z,1.30
2019-04-14T05:43:36.775Z,1.43
2019-04-14T05:45:56.996Z,1.70
2019-04-14T05:48:27.223Z,1.40
2019-04-14T05:50:59.896Z,1.40
2019-04-14T05:53:30.446Z,1.30
2019-04-14T05:56:01.325Z,0.97
2019-04-14T05:58:31.780Z,1.47
2019-04-14T06:01:02.421Z,1.53
2019-04-14T06:03:32.183Z,1.43
2019-04-14T06:06:01.673Z,1.20
2019-04-14T06:08:31.195Z,1.60
2019-04-14T06:11:00.739Z,1.30
2019-04-14T06:13:30.254Z,1.40
2019-04-14T06:15:59.812Z,3.00
2019-04-14T06:18:29.289Z,1.33
2019-04-14T06:20:58.767Z,1.20
2019-04-14T06:23:28.223Z,1.30
2019-04-14T06:25:57.717Z,2.67
2019-04-14T06:28:27.197Z,1.50
2019-04-14T06:31:16.444Z,1.20
2019-04-14T06:33:51.674Z,1.60
2019-04-14T06:36:45.221Z,1.20
2019-04-14T06:39:18.402Z,1.30
2019-04-14T06:41:47.854Z,0.73
2019-04-14T06:44:17.381Z,0.90
2019-04-14T06:46:46.843Z,1.40
2019-04-14T06:49:16.378Z,1.60
2019-04-14T06:51:45.858Z,1.90
2019-04-14T06:54:15.351Z,1.60
2019-04-14T06:56:44.776Z,1.83
2019-04-14T06:59:14.312Z,1.90
2019-04-14T07:01:43.831Z,1.47
2019-04-14T07:04:13.343Z,1.53
2019-04-14T07:06:42.889Z,1.60
2019-04-14T07:09:12.372Z,1.40
2019-04-14T07:11:41.853Z,1.60
2019-04-14T07:14:11.320Z,1.80
2019-04-14T07:16:40.841Z,1.17
2019-04-14T07:19:10.358Z,1.40
2019-04-14T07:21:39.909Z,1.73
2019-04-14T07:24:09.470Z,2.93
2019-04-14T07:26:38.997Z,1.80
2019-04-14T07:29:08.457Z,1.50
2019-04-14T07:32:09.297Z,1.73
2019-04-14T07:34:48.708Z,1.00
2019-04-14T07:37:35.755Z,1.10
2019-04-14T07:40:22.781Z,1.00
2019-04-14T07:42:57.779Z,0.80
2019-04-14T07:45:55.528Z,1.00
2019-04-14T07:48:38.633Z,1.00
2019-04-14T07:51:32.894Z,0.80
2019-04-14T07:54:10.297Z,0.70
2019-04-14T07:57:13.803Z,0.80
2019-04-14T08:00:20.434Z,1.00
2019-04-14T08:02:54.676Z,1.80
2019-04-14T08:05:28.833Z,0.77
2019-04-14T08:07:58.345Z,0.90
2019-04-14T08:10:27.789Z,0.80
2019-04-14T08:12:57.319Z,1.00
2019-04-14T08:15:26.839Z,0.90
2019-04-14T08:17:56.354Z,1.00
2019-04-14T08:20:27.576Z,1.80
2019-04-14T08:22:57.898Z,1.00
2019-04-14T08:25:27.584Z,1.10
2019-04-14T08:27:57.106Z,0.90
2019-04-14T08:30:26.608Z,1.10
2019-04-14T08:32:56.090Z,1.30
2019-04-14T08:35:25.684Z,1.10
2019-04-14T08:37:55.191Z,1.00
2019-04-14T08:40:24.694Z,1.20
2019-04-14T08:43:00.299Z,1.13
2019-04-14T08:48:49.627Z,0.70
2019-04-14T08:51:26.926Z,1.00
2019-04-14T08:54:15.323Z,0.60
2019-04-14T08:57:03.751Z,1.10
2019-04-14T08:59:48.988Z,1.00
2019-04-14T09:02:40.641Z,1.00
2019-04-14T09:05:28.142Z,1.10
2019-04-14T09:08:16.537Z,0.80
2019-04-14T09:10:48.553Z,1.20
2019-04-14T09:13:18.026Z,1.10
2019-04-14T09:15:47.549Z,0.90
2019-04-14T09:18:17.065Z,0.80
2019-04-14T09:20:52.519Z,1.17
2019-04-14T09:23:17.788Z,0.90
2019-04-14T09:25:47.315Z,1.17
2019-04-14T09:28:16.825Z,1.13
2019-04-14T09:30:46.328Z,0.60
2019-04-14T09:33:15.793Z,0.70
2019-04-14T09:35:45.283Z,0.90
2019-04-14T09:38:14.743Z,0.60
2019-04-14T09:40:44.243Z,0.60
2019-04-14T09:43:13.749Z,0.30
2019-04-14T09:45:43.278Z,0.80
2019-04-14T09:48:12.766Z,0.70
2019-04-14T09:50:42.255Z,1.30
2019-04-14T09:53:11.701Z,1.00
2019-04-14T09:55:41.196Z,0.93
2019-04-14T09:58:10.699Z,1.00
2019-04-14T10:00:42.127Z,1.10
2019-04-14T10:03:11.622Z,1.23
2019-04-14T10:05:41.112Z,1.03
2019-04-14T10:08:10.697Z,0.80
2019-04-14T10:10:40.226Z,1.07
2019-04-14T10:13:09.748Z,0.80
2019-04-14T10:15:39.254Z,0.90
2019-04-14T10:18:08.733Z,1.10
2019-04-14T10:20:38.285Z,3.70
2019-04-14T10:23:07.730Z,5.33
2019-04-14T10:25:37.361Z,0.83
2019-04-14T10:28:06.901Z,0.63
2019-04-14T10:30:36.367Z,1.27
2019-04-14T10:33:05.897Z,0.90
2019-04-14T10:35:35.362Z,1.00
2019-04-14T10:38:04.916Z,0.90
2019-04-14T10:40:34.899Z,1.07
2019-04-14T10:43:04.381Z,0.80
2019-04-14T10:45:33.809Z,1.00
2019-04-14T10:48:03.283Z,3.47
2019-04-14T10:50:32.791Z,0.80
2019-04-14T10:53:02.272Z,0.83
2019-04-14T10:55:31.777Z,1.13
2019-04-14T10:58:01.269Z,0.60
2019-04-14T11:00:30.695Z,0.80
2019-04-14T11:03:00.196Z,0.90
2019-04-14T11:05:33.425Z,1.03
2019-04-14T11:08:02.920Z,0.93
2019-04-14T11:10:32.448Z,0.90
2019-04-14T11:13:01.954Z,1.20
2019-04-14T11:15:31.451Z,0.90
2019-04-14T11:18:00.941Z,1.00
2019-04-14T11:20:30.406Z,1.10
2019-04-14T11:23:03.415Z,0.60
2019-04-14T11:25:31.073Z,0.90
2019-04-14T11:28:00.557Z,0.50
2019-04-14T11:30:30.091Z,0.70
2019-04-14T11:33:10.973Z,0.80
2019-04-14T11:36:05.422Z,1.37
2019-04-14T11:38:38.543Z,1.63
2019-04-14T11:41:11.347Z,0.97
2019-04-14T11:43:40.821Z,1.60
2019-04-14T11:46:10.290Z,3.03
2019-04-14T11:48:39.753Z,1.30
2019-04-14T11:51:09.229Z,1.63
2019-04-14T11:53:38.804Z,0.80
2019-04-14T11:56:08.492Z,0.50
2019-04-14T11:58:37.952Z,0.80
2019-04-14T12:01:35.895Z,0.80
2019-04-14T12:04:22.934Z,0.90
2019-04-14T12:07:09.859Z,0.93
2019-04-14T12:09:42.774Z,0.70
2019-04-14T12:12:12.281Z,1.00
2019-04-14T12:14:41.778Z,1.10
2019-04-14T12:17:11.244Z,1.03
2019-04-14T12:19:40.746Z,1.10
2019-04-14T12:22:10.248Z,0.90
2019-04-14T12:24:39.747Z,1.50
2019-04-14T12:27:09.307Z,1.27
2019-04-14T12:29:39.067Z,1.20
2019-04-14T12:32:08.961Z,0.63
2019-04-14T12:34:38.438Z,0.70
2019-04-14T12:37:07.930Z,1.97
2019-04-14T12:39:37.380Z,1.10
2019-04-14T12:42:32.064Z,1.10
2019-04-14T12:45:13.639Z,0.90
2019-04-14T12:47:51.822Z,0.73
2019-04-14T12:50:27.640Z,0.60
2019-04-14T12:52:57.459Z,0.60
2019-04-14T12:55:27.199Z,0.70
2019-04-14T12:57:59.462Z,1.30
2019-04-14T13:00:44.412Z,1.47
2019-04-14T13:03:15.307Z,1.00
2019-04-14T13:05:44.720Z,1.03
2019-04-14T13:08:14.238Z,0.80
2019-04-14T13:10:43.748Z,0.93
2019-04-14T13:13:13.267Z,0.80
2019-04-14T13:15:42.830Z,1.30
2019-04-14T13:18:12.336Z,1.30
2019-04-14T13:20:41.847Z,2.07
2019-04-14T13:23:11.372Z,1.17
2019-04-14T13:25:40.912Z,1.10
2019-04-14T13:28:10.398Z,1.07
2019-04-14T13:30:42.595Z,1.10
2019-04-14T13:33:12.104Z,1.10
2019-04-14T13:35:41.619Z,1.07
2019-04-14T13:38:11.109Z,1.03
2019-04-14T13:40:40.643Z,1.27
2019-04-14T13:43:10.202Z,1.60
2019-04-14T13:45:39.677Z,1.40
2019-04-14T13:48:09.217Z,1.53
2019-04-14T13:50:38.668Z,1.20
2019-04-14T13:53:08.267Z,1.20
2019-04-14T13:55:37.783Z,2.83
2019-04-14T13:58:07.251Z,5.30
2019-04-14T14:00:36.845Z,3.90
2019-04-14T14:03:06.352Z,5.03
2019-04-14T14:05:35.842Z,5.30
2019-04-14T14:08:05.327Z,3.70
2019-04-14T14:10:34.826Z,6.50
2019-04-14T14:13:22.654Z,8.30
2019-04-14T14:16:20.217Z,5.20
2019-04-14T14:19:08.629Z,2.93
2019-04-14T14:21:51.826Z,2.63
2019-04-14T14:24:42.924Z,3.23
2019-04-14T14:27:12.462Z,2.67
2019-04-14T14:29:41.944Z,3.80
2019-04-14T14:32:26.650Z,2.50
2019-04-14T14:34:56.082Z,2.97
2019-04-14T14:37:25.604Z,2.80
2019-04-14T14:39:55.095Z,2.40
2019-04-14T14:42:24.609Z,2.30
2019-04-14T14:45:15.834Z,2.47
2019-04-14T14:47:52.834Z,3.67
2019-04-14T14:50:33.671Z,3.90
2019-04-14T14:53:11.891Z,5.27
2019-04-14T14:55:34.388Z,6.90
2019-04-14T14:58:03.895Z,3.60
2019-04-14T15:00:34.727Z,4.87
2019-04-14T15:03:04.343Z,3.40
2019-04-14T15:05:33.778Z,4.30
2019-04-14T15:08:03.683Z,4.77
2019-04-14T15:10:33.156Z,3.43
2019-04-14T15:13:02.693Z,3.00
2019-04-14T15:15:32.092Z,3.10
2019-04-14T15:18:01.594Z,2.83
2019-04-14T15:20:31.059Z,3.43
2019-04-14T15:23:00.554Z,3.10
2019-04-14T15:25:30.047Z,3.10
2019-04-14T15:27:59.540Z,2.70
2019-04-14T15:30:29.039Z,2.80
2019-04-14T15:32:58.632Z,2.80
2019-04-14T15:35:28.113Z,2.47
2019-04-14T15:37:57.662Z,2.50
2019-04-14T15:40:27.144Z,2.20
2019-04-14T15:42:57.078Z,2.77
2019-04-14T15:45:26.580Z,2.33
2019-04-14T15:47:56.082Z,2.77
2019-04-14T15:50:25.568Z,3.53
2019-04-14T15:52:55.089Z,3.10
2019-04-14T15:55:24.587Z,1.70
2019-04-14T15:58:11.779Z,2.07
2019-04-14T16:00:59.042Z,2.20
2019-04-14T16:03:42.927Z,1.70
2019-04-14T16:06:40.941Z,1.80
2019-04-14T16:09:32.387Z,1.87
2019-04-14T16:12:19.535Z,1.90
2019-04-14T16:15:14.439Z,1.87
2019-04-14T16:18:10.535Z,1.73
2019-04-14T16:20:42.119Z,1.60
2019-04-14T16:23:11.614Z,1.80
2019-04-14T16:26:09.161Z,1.70
2019-04-14T16:28:48.140Z,1.70
2019-04-14T16:31:55.426Z,1.90
2019-04-14T16:34:28.025Z,2.13
2019-04-14T16:36:57.875Z,1.90
2019-04-14T16:39:27.388Z,2.00
2019-04-14T16:41:56.905Z,1.63
2019-04-14T16:44:26.385Z,1.80
2019-04-14T16:46:55.852Z,2.00
2019-04-14T16:49:25.409Z,2.00
2019-04-14T16:52:00.012Z,2.37
2019-04-14T16:54:43.415Z,2.47
2019-04-14T16:57:44.580Z,2.30
2019-04-14T17:00:18.146Z,2.00
2019-04-14T17:02:50.073Z,2.27
2019-04-14T17:05:18.913Z,2.30
2019-04-14T17:07:48.428Z,1.73
2019-04-14T17:10:17.926Z,1.70
2019-04-14T17:12:47.425Z,2.00
2019-04-14T17:15:35.817Z,1.50
2019-04-14T17:18:14.827Z,2.00
2019-04-14T17:21:02.277Z,1.60
2019-04-14T17:23:39.156Z,1.80
2019-04-14T17:26:30.671Z,1.80
2019-04-14T17:29:19.058Z,2.40
2019-04-14T17:32:22.660Z,2.20
2019-04-14T17:35:29.222Z,2.10
2019-04-14T17:38:02.820Z,2.00
2019-04-14T17:40:57.598Z,2.60
2019-04-14T17:43:46.006Z,3.03
2019-04-14T17:46:46.465Z,3.37
2019-04-14T17:49:38.406Z,3.70
2019-04-14T17:52:25.426Z,3.20
2019-04-14T17:55:17.916Z,4.07
2019-04-14T17:58:15.549Z,3.77
2019-04-14T18:00:53.750Z,4.13
2019-04-14T18:03:57.619Z,4.00
2019-04-14T18:06:37.141Z,4.53
2019-04-14T18:09:29.523Z,4.10
2019-04-14T18:12:23.918Z,3.27
2019-04-14T18:15:11.850Z,3.53
2019-04-14T18:17:59.454Z,2.80
2019-04-14T18:20:36.291Z,3.50
2019-04-14T18:23:05.813Z,3.40
2019-04-14T18:25:35.776Z,3.30
2019-04-14T18:28:26.434Z,3.03
2019-04-14T18:31:08.498Z,2.50
2019-04-14T18:33:55.708Z,2.40
2019-04-14T18:36:31.991Z,1.97
2019-04-14T18:39:20.410Z,2.37
2019-04-14T18:42:11.933Z,2.30
2019-04-14T18:44:54.299Z,2.50
2019-04-14T18:47:27.133Z,2.47
2019-04-14T18:50:15.537Z,2.40
2019-04-14T18:52:55.979Z,1.90
2019-04-14T18:55:32.460Z,2.07
2019-04-14T18:58:10.334Z,2.27
2019-04-14T19:00:43.990Z,2.00
2019-04-14T19:03:13.498Z,2.17
2019-04-14T19:05:42.941Z,2.13
2019-04-14T19:08:12.461Z,2.30
2019-04-14T19:10:44.059Z,2.70
2019-04-14T19:13:26.631Z,2.93
2019-04-14T19:16:01.036Z,2.70
2019-04-14T19:18:39.888Z,2.50
2019-04-14T19:21:12.044Z,3.10
2019-04-14T19:23:41.511Z,2.67
2019-04-14T19:26:10.978Z,2.50
2019-04-14T19:28:40.502Z,2.70
2019-04-14T19:31:10.009Z,2.40
2019-04-14T19:33:39.482Z,2.57
2019-04-14T19:36:09.328Z,2.73
2019-04-14T19:38:38.827Z,2.83
2019-04-14T19:41:08.659Z,3.30
2019-04-14T19:43:38.138Z,3.33
2019-04-14T19:46:07.613Z,3.40
2019-04-14T19:48:37.056Z,3.83
2019-04-14T19:51:06.608Z,3.50
2019-04-14T19:53:36.085Z,4.03
2019-04-14T19:56:05.620Z,3.87
2019-04-14T19:58:35.082Z,4.00
2019-04-14T20:01:07.190Z,4.10
2019-04-14T20:03:36.258Z,3.60
2019-04-14T20:06:05.718Z,3.37
2019-04-14T20:08:35.209Z,4.20
2019-04-14T20:11:04.916Z,3.57
2019-04-14T20:13:39.103Z,3.63
2019-04-14T20:16:26.383Z,3.57
2019-04-14T20:19:10.387Z,3.50
2019-04-14T20:21:54.191Z,3.40
2019-04-14T20:24:32.734Z,3.00
2019-04-14T20:27:09.278Z,3.20
2019-04-14T20:29:41.856Z,3.10
2019-04-14T20:32:14.183Z,2.90
2019-04-14T20:34:43.683Z,3.03
2019-04-14T20:37:13.636Z,3.10
2019-04-14T20:39:43.124Z,3.50
2019-04-14T20:42:12.692Z,3.37
2019-04-14T20:44:42.187Z,3.23
2019-04-14T20:47:11.739Z,3.23
2019-04-14T20:49:41.243Z,3.20
2019-04-14T20:52:10.808Z,3.43
2019-04-14T20:54:40.318Z,3.47
2019-04-14T20:57:09.796Z,3.50
2019-04-14T20:59:39.252Z,3.57
2019-04-14T21:02:33.442Z,3.90
2019-04-14T21:05:17.905Z,3.50
2019-04-14T21:08:09.499Z,3.77
2019-04-14T21:10:43.419Z,3.40
2019-04-14T21:13:30.712Z,3.23
2019-04-14T21:16:12.789Z,3.13
2019-04-14T21:18:53.110Z,2.77
2019-04-14T21:21:37.355Z,3.10
2019-04-14T21:24:17.132Z,2.67
2019-04-14T21:26:58.114Z,2.80
2019-04-14T21:29:55.535Z,2.40
2019-04-14T21:32:28.952Z,2.50
2019-04-14T21:35:14.246Z,2.50
2019-04-14T21:38:01.776Z,2.47
2019-04-14T21:41:02.522Z,4.10
2019-04-14T21:43:32.051Z,2.60
2019-04-14T21:46:01.531Z,3.00
2019-04-14T21:48:31.035Z,2.70
2019-04-14T21:51:00.527Z,2.70
2019-04-14T21:53:29.965Z,2.50
2019-04-14T21:56:12.479Z,2.90
2019-04-14T21:58:39.739Z,2.57
2019-04-14T22:01:55.158Z,2.80
2019-04-14T22:04:53.551Z,2.23
2019-04-14T22:07:46.043Z,2.50
2019-04-14T22:10:22.558Z,2.50
2019-04-14T22:12:52.109Z,2.20
2019-04-14T22:15:21.606Z,2.40
2019-04-14T22:17:51.100Z,2.20
2019-04-14T22:20:20.567Z,2.13
2019-04-14T22:22:50.089Z,2.30
2019-04-14T22:25:19.522Z,2.20
2019-04-14T22:27:49.120Z,2.20
2019-04-14T22:30:18.711Z,2.10
2019-04-14T22:32:48.204Z,2.07
2019-04-14T22:35:17.699Z,2.30
2019-04-14T22:37:47.178Z,2.30
2019-04-14T22:40:16.745Z,2.20
2019-04-14T22:42:46.236Z,2.37
2019-04-14T22:45:15.866Z,2.47
2019-04-14T22:47:45.333Z,2.10
2019-04-14T22:50:14.868Z,2.60
2019-04-14T22:52:44.413Z,3.20
2019-04-14T22:55:14.009Z,2.80
2019-04-14T22:57:43.498Z,2.63
2019-04-14T23:00:18.774Z,2.70
2019-04-14T23:03:01.870Z,2.83
2019-04-14T23:06:08.441Z,3.10
2019-04-14T23:08:42.098Z,3.70
2019-04-14T23:11:30.529Z,4.20
2019-04-14T23:14:34.000Z,4.20
2019-04-14T23:17:34.579Z,4.60
2019-04-14T23:20:26.803Z,4.20
2019-04-14T23:23:18.060Z,3.53
2019-04-14T23:25:47.545Z,3.97
2019-04-14T23:28:17.025Z,3.70
2019-04-14T23:30:46.502Z,4.10
2019-04-14T23:33:15.973Z,4.30
2019-04-14T23:35:45.446Z,4.00
2019-04-14T23:38:14.917Z,3.83
2019-04-14T23:40:44.433Z,3.73
2019-04-14T23:43:13.906Z,3.80
2019-04-14T23:45:43.401Z,3.60
2019-04-14T23:48:12.864Z,3.07
2019-04-14T23:50:42.338Z,2.93
2019-04-14T23:53:11.845Z,2.30
2019-04-14T23:55:41.410Z,2.10
2019-04-14T23:58:10.912Z,2.10
